Time;durP1;ratioP1;P1;durP2;ratioP2;P2;SDS_P1;SDS_P2;PMS_P1;PMS_P2;Temp;Humidity;BMP_temperature;BMP_pressure;BME280_temperature;BME280_humidity;BME280_pressure;Samples;Min_cycle;Max_cycle;Signal;HPM_P1;HPM_P2
2022/11/24 00:02:07;;;;;;;12.60;4.95;;;8.10;99.90;;;;;;5074947;28;20028;-87
2022/11/24 00:04:32;;;;;;;16.90;4.18;;;8.10;99.90;;;;;;5092186;28;20056;-87
2022/11/24 00:06:58;;;;;;;14.57;5.32;;;8.00;99.90;;;;;;5092092;28;20043;-87
2022/11/24 00:09:24;;;;;;;14.35;4.50;;;8.00;99.90;;;;;;5075141;28;20036;-87
2022/11/24 00:11:49;;;;;;;15.20;4.22;;;8.00;99.90;;;;;;5092146;28;20035;-87
2022/11/24 00:14:15;;;;;;;10.05;4.10;;;8.00;99.90;;;;;;5081160;28;20122;-87
2022/11/24 00:16:41;;;;;;;14.88;4.43;;;8.00;99.90;;;;;;5099897;28;20040;-87
2022/11/24 00:19:08;;;;;;;13.70;4.35;;;7.90;99.90;;;;;;5097006;28;20127;-87
2022/11/24 00:21:35;;;;;;;14.48;4.05;;;7.90;99.90;;;;;;5089121;28;20039;-87
2022/11/24 00:24:01;;;;;;;13.77;4.50;;;7.90;99.90;;;;;;5088951;28;20033;-87
2022/11/24 00:26:29;;;;;;;13.75;4.93;;;7.90;99.90;;;;;;5105802;28;20082;-87
2022/11/24 00:28:58;;;;;;;12.57;3.50;;;7.90;99.90;;;;;;5071843;28;20045;-87
2022/11/24 00:31:35;;;;;;;18.88;4.60;;;7.90;99.90;;;;;;5106087;28;20248;-87
2022/11/24 00:34:04;;;;;;;15.23;4.38;;;7.80;99.90;;;;;;5088589;28;20044;-87
2022/11/24 00:36:32;;;;;;;15.38;4.82;;;7.80;99.90;;;;;;5105607;28;20037;-87
2022/11/24 00:39:03;;;;;;;19.98;4.80;;;7.80;99.90;;;;;;5071715;28;20561;-87
2022/11/24 00:41:29;;;;;;;18.50;4.18;;;7.80;99.90;;;;;;5088561;28;20410;-87
2022/11/24 00:43:55;;;;;;;13.57;4.15;;;7.80;99.90;;;;;;5071609;28;20040;-87
2022/11/24 00:46:22;;;;;;;16.88;5.05;;;7.80;99.90;;;;;;5105515;28;20039;-87
2022/11/24 00:48:48;;;;;;;16.50;3.58;;;7.80;99.90;;;;;;5088445;28;20040;-87
2022/11/24 00:51:15;;;;;;;13.57;3.85;;;7.80;99.90;;;;;;5105404;28;20166;-87
2022/11/24 00:53:41;;;;;;;13.13;3.75;;;7.80;99.90;;;;;;5088050;28;20059;-87
2022/11/24 00:56:08;;;;;;;14.10;3.92;;;7.70;99.90;;;;;;5088330;28;20040;-87
2022/11/24 00:58:34;;;;;;;14.90;3.67;;;7.70;99.90;;;;;;5071445;28;20454;-87
2022/11/24 01:01:10;;;;;;;16.80;3.35;;;7.70;99.90;;;;;;5105208;28;20119;-87
2022/11/24 01:03:36;;;;;;;18.25;4.20;;;7.70;99.90;;;;;;5071117;28;20039;-87
2022/11/24 01:06:08;;;;;;;13.40;3.72;;;7.70;99.90;;;;;;5072466;28;20036;-87
2022/11/24 01:08:35;;;;;;;14.68;4.18;;;7.70;99.90;;;;;;5071245;28;20036;-87
2022/11/24 01:11:17;;;;;;;12.88;4.07;;;7.70;99.90;;;;;;5105002;28;20533;-87
2022/11/24 01:13:45;;;;;;;16.08;4.07;;;7.70;99.90;;;;;;5087745;28;20045;-87
2022/11/24 01:16:14;;;;;;;10.13;2.67;;;7.70;99.90;;;;;;5087790;28;20040;-87
2022/11/24 01:18:39;;;;;;;17.63;4.20;;;7.70;99.90;;;;;;5087937;28;20437;-87
2022/11/24 01:21:05;;;;;;;13.57;3.60;;;7.70;99.90;;;;;;5071036;28;20033;-86
2022/11/24 01:23:32;;;;;;;18.77;4.20;;;7.70;99.90;;;;;;5104770;28;20040;-88
2022/11/24 01:25:57;;;;;;;17.27;4.15;;;7.70;99.90;;;;;;5070832;28;20516;-87
2022/11/24 01:28:23;;;;;;;15.90;4.22;;;7.70;99.90;;;;;;5071062;28;20052;-87
2022/11/24 01:31:03;;;;;;;14.80;3.45;;;7.70;99.90;;;;;;5087563;28;20555;-87
2022/11/24 01:33:29;;;;;;;18.38;4.45;;;7.80;99.90;;;;;;5104273;28;20052;-88
2022/11/24 01:35:56;;;;;;;17.60;3.97;;;7.80;99.90;;;;;;5071006;28;20131;-87
2022/11/24 01:38:22;;;;;;;16.30;3.58;;;7.80;99.90;;;;;;5070683;28;20040;-87
2022/11/24 01:40:48;;;;;;;14.75;4.00;;;7.80;99.90;;;;;;5087738;28;20040;-87
2022/11/24 01:43:19;;;;;;;12.90;3.10;;;7.80;99.90;;;;;;5104263;28;20093;-87
2022/11/24 01:45:46;;;;;;;16.05;3.22;;;7.80;99.90;;;;;;5087238;28;20036;-87
2022/11/24 01:48:31;;;;;;;16.55;4.00;;;7.80;99.90;;;;;;5087497;28;20050;-87
2022/11/24 01:51:16;;;;;;;14.13;3.38;;;7.90;99.90;;;;;;5104267;28;20072;-87
2022/11/24 01:53:48;;;;;;;17.75;3.55;;;7.90;99.90;;;;;;5104384;28;20127;-87
2022/11/24 01:56:14;;;;;;;14.95;2.78;;;7.90;99.90;;;;;;5070564;28;20060;-87
2022/11/24 01:58:42;;;;;;;18.52;3.35;;;7.80;99.90;;;;;;5070346;28;20047;-87
2022/11/24 02:01:09;;;;;;;20.88;4.35;;;7.80;99.90;;;;;;5087292;28;20044;-87
2022/11/24 02:03:39;;;;;;;18.25;3.38;;;7.80;99.90;;;;;;5087145;28;20119;-87
2022/11/24 02:06:14;;;;;;;13.80;3.35;;;7.80;99.90;;;;;;5087509;28;20059;-87
2022/11/24 02:08:56;;;;;;;18.10;3.92;;;7.80;99.90;;;;;;5104090;28;20052;-87
2022/11/24 02:11:25;;;;;;;14.75;3.45;;;7.80;99.90;;;;;;5103971;28;20075;-87
2022/11/24 02:13:53;;;;;;;22.92;3.97;;;7.80;99.90;;;;;;5069876;28;20044;-87
2022/11/24 02:16:19;;;;;;;25.33;3.65;;;7.80;99.90;;;;;;5087350;28;20044;-87
2022/11/24 02:18:44;;;;;;;15.55;3.15;;;7.80;99.90;;;;;;5103979;28;20127;-87
2022/11/24 02:21:12;;;;;;;13.00;3.42;;;7.80;99.90;;;;;;5087037;28;20123;-87
2022/11/24 02:23:58;;;;;;;16.27;3.50;;;7.80;99.90;;;;;;5070164;28;20041;-87
2022/11/24 02:26:27;;;;;;;18.85;3.00;;;7.90;99.90;;;;;;5069774;28;20680;-87
2022/11/24 02:28:52;;;;;;;12.18;3.85;;;7.90;99.90;;;;;;5087277;28;20497;-87
2022/11/24 02:31:18;;;;;;;16.88;4.22;;;7.90;99.90;;;;;;5069989;28;20093;-87
2022/11/24 02:33:44;;;;;;;18.73;3.65;;;7.90;99.90;;;;;;5086596;28;20037;-87
2022/11/24 02:36:09;;;;;;;16.10;3.65;;;7.90;99.90;;;;;;5104143;28;20055;-87
2022/11/24 02:38:35;;;;;;;19.27;4.35;;;7.90;99.90;;;;;;5104013;28;20041;-87
2022/11/24 02:41:10;;;;;;;16.75;3.25;;;7.90;99.90;;;;;;5103952;28;20512;-87
2022/11/24 02:43:43;;;;;;;18.83;3.90;;;7.90;99.90;;;;;;5103852;28;20576;-87
2022/11/24 02:46:09;;;;;;;14.52;3.63;;;8.00;99.90;;;;;;5087655;28;20044;-87
2022/11/24 02:48:36;;;;;;;16.38;4.05;;;8.00;99.90;;;;;;5073604;28;20056;-87
2022/11/24 02:51:03;;;;;;;19.02;3.25;;;8.00;99.90;;;;;;5090109;28;20097;-87
2022/11/24 02:53:28;;;;;;;18.80;3.30;;;8.00;99.90;;;;;;5090100;28;20601;-87
2022/11/24 02:55:54;;;;;;;17.17;3.42;;;8.00;99.90;;;;;;5073262;28;20068;-87
2022/11/24 02:58:19;;;;;;;12.35;2.40;;;8.00;99.90;;;;;;5090048;28;20036;-87
2022/11/24 03:00:46;;;;;;;15.02;3.45;;;8.10;99.90;;;;;;5090020;28;20058;-88
2022/11/24 03:03:11;;;;;;;10.10;2.65;;;8.10;99.90;;;;;;5072978;28;20093;-87
2022/11/24 03:05:37;;;;;;;21.77;3.55;;;8.10;99.90;;;;;;5090216;28;20044;-87
2022/11/24 03:08:03;;;;;;;20.05;3.70;;;8.10;99.90;;;;;;5090352;28;20090;-87
2022/11/24 03:10:29;;;;;;;15.70;3.30;;;8.10;99.90;;;;;;5089942;28;20040;-87
2022/11/24 03:12:54;;;;;;;13.10;3.40;;;8.10;99.90;;;;;;5089747;28;20047;-87
2022/11/24 03:15:22;;;;;;;15.35;2.83;;;8.10;99.90;;;;;;5089747;28;20039;-88
2022/11/24 03:17:48;;;;;;;20.95;3.55;;;8.10;99.90;;;;;;5089947;28;20044;-87
2022/11/24 03:20:15;;;;;;;17.15;2.40;;;8.20;99.90;;;;;;5073030;28;20052;-88
2022/11/24 03:22:41;;;;;;;16.88;3.25;;;8.20;99.90;;;;;;5089523;28;20032;-88
2022/11/24 03:25:07;;;;;;;14.98;3.45;;;8.20;99.90;;;;;;5092170;28;20046;-87
2022/11/24 03:27:32;;;;;;;18.80;3.08;;;8.20;99.90;;;;;;5076566;28;20039;-87
2022/11/24 03:29:58;;;;;;;15.57;2.90;;;8.30;99.90;;;;;;5093367;28;20101;-87
2022/11/24 03:32:24;;;;;;;14.45;2.80;;;8.30;99.90;;;;;;5076240;28;20058;-88
2022/11/24 03:34:50;;;;;;;16.73;3.30;;;8.30;99.90;;;;;;5076456;28;20072;-87
2022/11/24 03:37:15;;;;;;;18.98;2.78;;;8.30;99.90;;;;;;5093199;28;20121;-87
2022/11/24 03:39:41;;;;;;;15.38;3.08;;;8.30;99.90;;;;;;5093105;28;20123;-88
2022/11/24 03:42:07;;;;;;;15.30;2.83;;;8.30;99.90;;;;;;5092940;28;20028;-88
2022/11/24 03:44:33;;;;;;;19.50;2.90;;;8.20;99.90;;;;;;5076139;28;20036;-87
2022/11/24 03:46:58;;;;;;;14.18;2.83;;;8.20;99.90;;;;;;5092966;28;20039;-87
2022/11/24 03:49:24;;;;;;;16.70;3.17;;;8.20;99.90;;;;;;5076419;28;20105;-87
2022/11/24 03:51:50;;;;;;;12.35;2.75;;;8.20;99.90;;;;;;5075938;28;20558;-88
2022/11/24 03:54:15;;;;;;;11.57;2.45;;;8.20;99.90;;;;;;5076067;28;20075;-87
2022/11/24 03:56:41;;;;;;;16.52;2.85;;;8.20;99.90;;;;;;5093088;28;20485;-87
2022/11/24 03:59:07;;;;;;;13.73;2.58;;;8.20;99.90;;;;;;5092805;28;20386;-87
2022/11/24 04:01:33;;;;;;;19.00;3.03;;;8.20;99.90;;;;;;5092639;28;20036;-89
2022/11/24 04:03:59;;;;;;;15.23;2.67;;;8.20;99.90;;;;;;5092724;28;20421;-87
2022/11/24 04:06:25;;;;;;;14.45;2.28;;;8.20;99.90;;;;;;5075740;28;20048;-87
2022/11/24 04:08:51;;;;;;;19.92;2.78;;;8.20;99.90;;;;;;5075790;28;20042;-87
2022/11/24 04:14:00;;;;;;;15.07;3.00;;;8.10;99.90;;;;;;5092490;28;20429;-87
2022/11/24 04:16:26;;;;;;;16.50;2.97;;;8.10;99.90;;;;;;5075633;28;20535;-87
2022/11/24 04:18:52;;;;;;;15.50;3.03;;;8.10;99.90;;;;;;5092466;28;20040;-87
2022/11/24 04:21:19;;;;;;;15.27;3.15;;;8.10;99.90;;;;;;5092780;28;20122;-87
2022/11/24 04:23:45;;;;;;;17.23;2.78;;;8.10;99.90;;;;;;5075181;28;20043;-87
2022/11/24 04:26:10;;;;;;;9.93;2.28;;;8.10;99.90;;;;;;5075656;28;20478;-87
2022/11/24 04:28:37;;;;;;;15.50;3.00;;;8.10;99.90;;;;;;5092218;28;20079;-87
2022/11/24 04:31:04;;;;;;;18.35;3.22;;;8.10;99.90;;;;;;5092275;28;20077;-87
2022/11/24 04:33:30;;;;;;;15.15;2.47;;;8.20;99.90;;;;;;5092213;28;20032;-87
2022/11/24 04:35:56;;;;;;;15.52;3.60;;;8.10;99.90;;;;;;5091790;28;20428;-87
2022/11/24 04:38:21;;;;;;;9.27;2.50;;;8.10;99.90;;;;;;5091969;28;20447;-87
2022/11/24 04:40:47;;;;;;;16.50;2.85;;;8.10;99.90;;;;;;5091964;28;20040;-87
2022/11/24 04:43:12;;;;;;;13.82;2.58;;;8.10;99.90;;;;;;5091922;28;20048;-87
2022/11/24 04:45:38;;;;;;;17.33;3.28;;;8.10;99.90;;;;;;5075046;28;20028;-88
2022/11/24 04:48:04;;;;;;;14.32;2.83;;;8.10;99.90;;;;;;5091883;28;20040;-87
2022/11/24 04:50:30;;;;;;;10.90;2.42;;;8.10;99.90;;;;;;5075193;28;20036;-87
2022/11/24 04:52:55;;;;;;;14.40;2.78;;;8.20;99.90;;;;;;5091569;28;20512;-88
2022/11/24 04:55:21;;;;;;;12.43;2.45;;;8.20;99.90;;;;;;5091949;28;20625;-88
2022/11/24 04:57:46;;;;;;;15.90;2.65;;;8.20;99.90;;;;;;5074831;28;20476;-88
2022/11/24 05:00:13;;;;;;;16.20;3.10;;;8.20;99.90;;;;;;5091488;28;20454;-87
2022/11/24 05:02:38;;;;;;;16.42;2.90;;;8.20;99.90;;;;;;5074458;28;20043;-87
2022/11/24 05:05:05;;;;;;;14.68;2.22;;;8.20;99.90;;;;;;5091783;28;20028;-87
2022/11/24 05:07:32;;;;;;;14.98;2.00;;;8.20;99.90;;;;;;5091812;28;20040;-87
2022/11/24 05:12:41;;;;;;;9.35;2.60;;;8.20;99.90;;;;;;5091094;28;20079;-87
2022/11/24 05:15:07;;;;;;;16.85;3.50;;;8.30;99.90;;;;;;5091601;28;20075;-87
2022/11/24 05:17:37;;;;;;;14.10;2.65;;;8.30;99.90;;;;;;5091323;28;20047;-87
2022/11/24 05:20:05;;;;;;;16.73;3.63;;;8.30;99.90;;;;;;5091346;28;20475;-87
2022/11/24 05:22:31;;;;;;;12.75;2.80;;;8.30;99.90;;;;;;5073844;28;20032;-87
2022/11/24 05:24:56;;;;;;;17.40;3.40;;;8.30;99.90;;;;;;5074545;28;20181;-87
2022/11/24 05:27:22;;;;;;;17.15;2.88;;;8.30;99.90;;;;;;5091460;28;20036;-87
2022/11/24 05:29:48;;;;;;;12.65;2.85;;;8.30;99.90;;;;;;5091451;28;20441;-87
2022/11/24 05:32:13;;;;;;;19.08;4.07;;;8.30;99.90;;;;;;5091097;28;20047;-87
2022/11/24 05:34:39;;;;;;;12.20;2.53;;;8.20;99.90;;;;;;5091313;28;20559;-87
2022/11/24 05:37:05;;;;;;;16.65;3.22;;;8.20;99.90;;;;;;5091177;28;20050;-87
2022/11/24 05:39:32;;;;;;;13.20;2.42;;;8.20;99.90;;;;;;5091011;28;20043;-87
2022/11/24 05:41:57;;;;;;;11.57;2.40;;;8.20;99.90;;;;;;5073955;28;20076;-87
2022/11/24 05:44:23;;;;;;;15.00;3.50;;;8.20;99.90;;;;;;5090723;28;20072;-87
2022/11/24 05:46:49;;;;;;;12.15;2.10;;;8.10;99.90;;;;;;5090165;28;20043;-87
2022/11/24 05:49:14;;;;;;;15.88;2.60;;;8.10;99.90;;;;;;5090894;28;20040;-87
2022/11/24 05:51:40;;;;;;;15.02;2.58;;;8.10;99.90;;;;;;5090499;28;20043;-88
2022/11/24 05:54:05;;;;;;;14.18;2.85;;;8.10;99.90;;;;;;5090275;28;20040;-88
2022/11/24 05:56:31;;;;;;;13.77;2.60;;;8.10;99.90;;;;;;5073837;28;20131;-87
2022/11/24 05:58:56;;;;;;;12.23;2.60;;;8.10;99.90;;;;;;5090673;28;20119;-87
2022/11/24 06:01:22;;;;;;;15.23;2.83;;;8.10;99.90;;;;;;5073945;28;20071;-87
2022/11/24 06:03:48;;;;;;;12.35;2.85;;;8.10;99.90;;;;;;5090233;28;20039;-87
2022/11/24 06:06:13;;;;;;;9.77;2.50;;;8.10;99.90;;;;;;5073850;28;20092;-87
2022/11/24 06:08:39;;;;;;;19.52;2.75;;;8.10;99.90;;;;;;5090613;28;20055;-88
2022/11/24 06:11:16;;;;;;;12.88;2.85;;;8.10;99.90;;;;;;5090592;28;20051;-88
2022/11/24 06:13:47;;;;;;;17.92;3.80;;;8.10;99.90;;;;;;5087783;28;20173;-87
2022/11/24 06:16:13;;;;;;;12.77;2.53;;;8.10;99.90;;;;;;5089438;28;20555;-87
2022/11/24 06:18:39;;;;;;;12.60;2.60;;;8.10;99.90;;;;;;5089593;28;20048;-87
2022/11/24 06:21:05;;;;;;;15.27;3.08;;;8.10;99.90;;;;;;5089726;28;20587;-87
2022/11/24 06:23:31;;;;;;;15.07;3.53;;;8.10;99.90;;;;;;5072904;28;20048;-87
2022/11/24 06:25:57;;;;;;;16.63;3.28;;;8.10;99.90;;;;;;5072799;28;20032;-87
2022/11/24 06:28:23;;;;;;;11.68;2.53;;;8.10;99.90;;;;;;5089430;28;20044;-87
2022/11/24 06:30:49;;;;;;;13.70;2.70;;;8.10;99.90;;;;;;5089483;28;20089;-87
2022/11/24 06:33:14;;;;;;;17.98;3.80;;;8.10;99.90;;;;;;5072132;28;20048;-87
2022/11/24 06:35:40;;;;;;;16.42;3.50;;;8.10;99.90;;;;;;5072456;28;20047;-87
2022/11/24 06:38:06;;;;;;;19.08;3.17;;;8.20;99.90;;;;;;5089096;28;20137;-87
2022/11/24 06:40:31;;;;;;;18.70;3.47;;;8.20;99.90;;;;;;5072614;28;20378;-87
2022/11/24 06:42:57;;;;;;;14.05;3.55;;;8.20;99.90;;;;;;5072304;28;20447;-87
2022/11/24 06:45:23;;;;;;;23.65;4.95;;;8.20;99.90;;;;;;5089121;28;20032;-87
2022/11/24 06:47:48;;;;;;;19.48;6.88;;;8.20;99.90;;;;;;5072310;28;20039;-87
2022/11/24 06:50:14;;;;;;;22.88;8.98;;;8.20;99.90;;;;;;5089386;28;20039;-87
2022/11/24 06:52:40;;;;;;;18.60;4.78;;;8.20;99.90;;;;;;5089263;28;20486;-87
2022/11/24 06:55:06;;;;;;;19.13;3.83;;;8.20;99.90;;;;;;5089075;28;20528;-88
2022/11/24 06:57:31;;;;;;;20.10;3.40;;;8.30;99.90;;;;;;5072650;28;20043;-88
2022/11/24 06:59:57;;;;;;;16.85;3.42;;;8.30;99.90;;;;;;5093232;28;20044;-87
2022/11/24 07:02:23;;;;;;;13.27;3.03;;;8.30;99.90;;;;;;5093393;28;20038;-87
2022/11/24 07:04:48;;;;;;;11.40;2.85;;;8.30;99.90;;;;;;5093319;28;20071;-88
2022/11/24 07:07:14;;;;;;;15.52;2.78;;;8.30;99.90;;;;;;5076266;28;20123;-87
2022/11/24 07:09:39;;;;;;;14.88;3.33;;;8.40;99.90;;;;;;5092973;28;20493;-87
2022/11/24 07:12:05;;;;;;;13.35;3.45;;;8.40;99.90;;;;;;5093152;28;20048;-87
2022/11/24 07:14:31;;;;;;;17.25;3.83;;;8.40;99.90;;;;;;5093158;28;20050;-87
2022/11/24 07:16:56;;;;;;;19.25;3.28;;;8.40;99.90;;;;;;5093000;28;20044;-87
2022/11/24 07:19:22;;;;;;;15.75;3.55;;;8.40;99.90;;;;;;5092520;28;20051;-87
2022/11/24 07:21:47;;;;;;;19.05;3.70;;;8.40;99.90;;;;;;5076253;28;20040;-87
2022/11/24 07:24:13;;;;;;;13.90;3.53;;;8.40;99.90;;;;;;5076065;28;20024;-87
2022/11/24 07:26:39;;;;;;;13.00;3.33;;;8.40;99.90;;;;;;5075765;28;20546;-87
2022/11/24 07:29:04;;;;;;;19.73;4.10;;;8.40;99.90;;;;;;5075762;28;20151;-87
2022/11/24 07:31:30;;;;;;;16.73;3.05;;;8.40;99.90;;;;;;5093003;28;20408;-87
2022/11/24 07:33:56;;;;;;;16.77;3.25;;;8.40;99.90;;;;;;5075328;28;20117;-87
2022/11/24 07:36:23;;;;;;;14.30;3.13;;;8.40;99.90;;;;;;5075930;28;20111;-87
2022/11/24 07:38:49;;;;;;;16.17;3.38;;;8.40;99.90;;;;;;5075473;28;20036;-87
2022/11/24 07:41:18;;;;;;;22.55;5.30;;;8.40;99.90;;;;;;5092770;28;20036;-87
2022/11/24 07:43:44;;;;;;;17.17;3.30;;;8.30;99.90;;;;;;5075539;28;20119;-87
2022/11/24 07:46:12;;;;;;;13.25;3.70;;;8.40;99.90;;;;;;5092369;28;20478;-87
2022/11/24 07:48:37;;;;;;;13.23;3.17;;;8.40;99.90;;;;;;5092194;28;20071;-87
2022/11/24 07:51:04;;;;;;;15.57;4.75;;;8.40;99.90;;;;;;5075423;28;20082;-87
2022/11/24 07:53:30;;;;;;;23.75;4.00;;;8.40;99.90;;;;;;5092117;28;20036;-87
2022/11/24 07:56:01;;;;;;;16.42;5.07;;;8.40;99.90;;;;;;5092482;28;20138;-87
2022/11/24 07:58:28;;;;;;;14.80;3.10;;;8.40;99.90;;;;;;5075495;28;20452;-87
2022/11/24 08:00:54;;;;;;;12.10;3.10;;;8.40;99.90;;;;;;5091707;28;20032;-87
2022/11/24 08:03:19;;;;;;;11.13;2.97;;;8.40;99.90;;;;;;5092039;28;20047;-88
2022/11/24 08:05:56;;;;;;;18.77;3.53;;;8.40;99.90;;;;;;5074686;28;20035;-87
2022/11/24 08:08:22;;;;;;;19.17;3.30;;;8.40;99.90;;;;;;5077467;28;20168;-87
2022/11/24 08:10:47;;;;;;;13.15;3.10;;;8.40;99.90;;;;;;5125405;27;20122;-87
2022/11/24 08:13:13;;;;;;;13.65;3.13;;;8.40;99.90;;;;;;5091770;28;20093;-87
2022/11/24 08:15:38;;;;;;;15.25;3.00;;;8.40;99.90;;;;;;5091388;28;20142;-87
2022/11/24 08:18:04;;;;;;;12.60;3.00;;;8.40;99.90;;;;;;5074817;28;20383;-87
2022/11/24 08:20:30;;;;;;;14.90;3.72;;;8.40;99.90;;;;;;5073919;28;20615;-86
2022/11/24 08:22:58;;;;;;;12.13;3.58;;;8.30;99.90;;;;;;5107664;28;20036;-87
2022/11/24 08:25:25;;;;;;;12.57;3.05;;;8.30;99.90;;;;;;5107919;28;20123;-87
2022/11/24 08:27:51;;;;;;;15.63;2.97;;;8.30;99.90;;;;;;5091265;28;20036;-86
2022/11/24 08:30:18;;;;;;;15.95;3.58;;;8.30;99.90;;;;;;5091649;28;20055;-87
2022/11/24 08:32:44;;;;;;;16.38;3.05;;;8.30;99.90;;;;;;5089578;28;20615;-87
2022/11/24 08:35:11;;;;;;;12.82;3.55;;;8.30;99.90;;;;;;5089017;28;20152;-86
2022/11/24 08:37:36;;;;;;;15.60;3.35;;;8.30;99.90;;;;;;5089987;28;20532;-86
2022/11/24 08:40:02;;;;;;;13.15;2.88;;;8.30;99.90;;;;;;5090016;28;20036;-87
2022/11/24 08:42:28;;;;;;;12.85;3.03;;;8.40;99.90;;;;;;5089548;28;20036;-86
2022/11/24 08:44:53;;;;;;;15.32;3.72;;;8.40;99.90;;;;;;5090004;28;20067;-87
2022/11/24 08:47:20;;;;;;;14.85;4.18;;;8.40;99.90;;;;;;5072911;28;20046;-86
2022/11/24 08:49:46;;;;;;;13.80;3.50;;;8.50;99.90;;;;;;5108430;28;20036;-87
2022/11/24 08:52:11;;;;;;;14.40;3.38;;;8.50;99.90;;;;;;5071497;28;20093;-87
2022/11/24 08:54:37;;;;;;;10.35;3.13;;;8.50;99.90;;;;;;5091109;28;20470;-87
2022/11/24 08:57:02;;;;;;;12.15;3.38;;;8.60;99.90;;;;;;5090668;28;20044;-88
2022/11/24 08:59:28;;;;;;;14.25;3.88;;;8.60;99.90;;;;;;5074147;28;20413;-88
2022/11/24 09:01:53;;;;;;;11.15;3.53;;;8.60;99.90;;;;;;5091389;28;20119;-87
2022/11/24 09:04:19;;;;;;;11.43;3.35;;;8.70;99.90;;;;;;5090767;28;20040;-87
2022/11/24 09:06:44;;;;;;;13.38;3.03;;;8.70;99.90;;;;;;5091126;28;20049;-88
2022/11/24 09:09:10;;;;;;;9.63;2.90;;;8.70;99.90;;;;;;5091072;28;20127;-88
2022/11/24 09:11:36;;;;;;;12.05;2.88;;;8.80;99.90;;;;;;5090783;28;20051;-87
2022/11/24 09:14:02;;;;;;;10.23;2.80;;;8.80;99.90;;;;;;5090110;28;20517;-87
2022/11/24 09:16:28;;;;;;;12.02;2.60;;;8.80;99.90;;;;;;5073309;28;20044;-87
2022/11/24 09:18:55;;;;;;;12.07;2.63;;;8.90;99.90;;;;;;5090747;28;20413;-87
2022/11/24 09:21:21;;;;;;;10.15;2.60;;;8.90;99.90;;;;;;5090308;28;20100;-87
2022/11/24 09:23:48;;;;;;;15.35;3.30;;;8.90;99.90;;;;;;5090284;28;20505;-87
2022/11/24 09:26:21;;;;;;;10.95;2.67;;;9.00;99.90;;;;;;5090620;28;20032;-87
2022/11/24 09:28:47;;;;;;;7.03;2.30;;;9.00;99.90;;;;;;5090562;28;20047;-87
2022/11/24 09:31:16;;;;;;;13.25;2.70;;;9.00;99.90;;;;;;5069831;28;20043;-87
2022/11/24 09:33:43;;;;;;;8.85;2.30;;;9.00;99.90;;;;;;5088130;28;20044;-87
2022/11/24 09:36:09;;;;;;;12.00;2.75;;;9.10;99.90;;;;;;5090017;28;20665;-87
2022/11/24 09:38:35;;;;;;;10.00;2.17;;;9.10;99.90;;;;;;5073470;28;20044;-87
2022/11/24 09:41:31;;;;;;;10.27;2.50;;;9.10;99.90;;;;;;5071549;28;20513;-88
2022/11/24 09:44:07;;;;;;;12.32;2.50;;;9.20;99.90;;;;;;5071914;28;20032;-87
2022/11/24 09:47:16;;;;;;;8.35;2.28;;;9.20;99.90;;;;;;5089306;28;20047;-87
2022/11/24 09:49:48;;;;;;;9.48;2.58;;;9.20;99.90;;;;;;5090092;28;20089;-87
2022/11/24 09:52:19;;;;;;;9.40;2.40;;;9.30;99.90;;;;;;5071118;28;20094;-87
2022/11/24 09:54:59;;;;;;;10.32;2.83;;;9.30;99.90;;;;;;5088157;28;20047;-87
2022/11/24 09:57:30;;;;;;;9.05;2.85;;;9.40;99.90;;;;;;5087807;28;20076;-88
2022/11/24 10:00:01;;;;;;;9.30;2.85;;;9.40;99.90;;;;;;5087797;28;20051;-87
2022/11/24 10:02:26;;;;;;;9.98;2.83;;;9.50;99.90;;;;;;5071528;28;20032;-87
2022/11/24 10:04:54;;;;;;;8.13;2.58;;;9.50;99.90;;;;;;5072376;28;20051;-87
2022/11/24 10:07:36;;;;;;;6.57;2.47;;;9.60;99.90;;;;;;5089777;28;20082;-87
2022/11/24 10:10:24;;;;;;;6.43;2.33;;;9.70;99.90;;;;;;5088705;28;20078;-87
2022/11/24 10:13:22;;;;;;;7.13;2.25;;;9.80;99.90;;;;;;5078673;28;20071;-88
2022/11/24 10:16:22;;;;;;;7.80;2.58;;;9.90;99.90;;;;;;5086442;28;20043;-88
2022/11/24 10:19:03;;;;;;;7.28;2.97;;;10.00;99.90;;;;;;5068185;28;20044;-88
2022/11/24 10:21:47;;;;;;;9.93;3.00;;;10.10;99.90;;;;;;5087297;28;20043;-88
2022/11/24 10:24:49;;;;;;;6.95;2.72;;;10.10;99.90;;;;;;5113171;28;20040;-88
2022/11/24 10:27:24;;;;;;;11.23;3.92;;;10.20;99.90;;;;;;5089388;28;20043;-88
2022/11/24 10:29:51;;;;;;;8.88;3.22;;;10.20;99.90;;;;;;5070317;28;20040;-88
2022/11/24 10:32:22;;;;;;;10.75;3.35;;;10.20;99.90;;;;;;5072012;28;20497;-88
2022/11/24 10:34:49;;;;;;;7.93;3.10;;;10.30;99.90;;;;;;5093099;28;20065;-88
2022/11/24 10:37:33;;;;;;;10.02;3.70;;;10.30;99.90;;;;;;5099277;28;20040;-88
2022/11/24 10:40:13;;;;;;;8.63;3.35;;;10.30;99.90;;;;;;5100918;28;20052;-88
2022/11/24 10:42:39;;;;;;;8.93;3.97;;;10.40;99.90;;;;;;5091328;28;20032;-88
2022/11/24 10:45:15;;;;;;;11.30;3.95;;;10.60;99.90;;;;;;5075940;28;20025;-88
2022/11/24 10:47:41;;;;;;;10.45;3.85;;;10.70;99.90;;;;;;5093514;28;20053;-87
2022/11/24 10:50:26;;;;;;;12.25;5.25;;;10.70;99.90;;;;;;5104851;28;20093;-88
2022/11/24 10:53:28;;;;;;;8.65;4.03;;;10.70;99.90;;;;;;5098404;28;20105;-88
2022/11/24 10:55:53;;;;;;;8.43;3.63;;;10.70;99.90;;;;;;5090138;28;20505;-88
2022/11/24 10:58:25;;;;;;;12.90;3.92;;;10.60;99.90;;;;;;5075808;28;20032;-88
2022/11/24 11:00:52;;;;;;;9.18;4.15;;;10.70;99.90;;;;;;5098582;28;20032;-88
2022/11/24 11:03:21;;;;;;;10.73;4.22;;;10.80;99.90;;;;;;5092665;28;20032;-88
2022/11/24 11:06:00;;;;;;;10.93;3.83;;;10.70;99.90;;;;;;5076097;28;20044;-88
2022/11/24 11:08:30;;;;;;;12.68;4.97;;;10.80;99.90;;;;;;5092674;28;20501;-88
2022/11/24 11:11:26;;;;;;;10.75;4.35;;;10.80;99.90;;;;;;5115976;27;20037;-88
2022/11/24 11:13:57;;;;;;;12.35;4.72;;;10.90;99.90;;;;;;5083028;28;20024;-88
2022/11/24 11:16:49;;;;;;;12.20;4.68;;;11.00;99.90;;;;;;5065796;28;20076;-88
2022/11/24 11:19:42;;;;;;;10.02;4.25;;;11.20;99.90;;;;;;5090448;28;20036;-88
2022/11/24 11:22:14;;;;;;;11.90;4.78;;;11.40;99.90;;;;;;5091771;28;20493;-88
2022/11/24 11:24:43;;;;;;;10.85;4.80;;;11.50;99.90;;;;;;5092560;28;20036;-87
2022/11/24 11:27:21;;;;;;;10.02;4.75;;;11.60;99.90;;;;;;5075281;28;20043;-88
2022/11/24 11:29:47;;;;;;;10.50;4.57;;;11.70;99.90;;;;;;5092311;28;20048;-88
2022/11/24 11:32:24;;;;;;;12.80;7.05;;;11.70;99.90;;;;;;5075070;28;20048;-87
2022/11/24 11:34:54;;;;;;;10.65;4.90;;;11.90;99.90;;;;;;5092443;28;20040;-87
2022/11/24 11:37:26;;;;;;;14.65;4.75;;;11.90;99.90;;;;;;5092282;28;20040;-87
2022/11/24 11:39:53;;;;;;;12.90;6.93;;;12.00;99.90;;;;;;5092664;28;20123;-87
2022/11/24 11:42:21;;;;;;;12.63;4.47;;;12.10;99.90;;;;;;5075382;28;20032;-87
2022/11/24 11:45:06;;;;;;;11.10;4.82;;;12.20;99.90;;;;;;5091787;28;20071;-87
2022/11/24 11:48:04;;;;;;;15.00;4.88;;;12.30;99.90;;;;;;5076012;28;20044;-87
2022/11/24 11:50:40;;;;;;;10.38;4.00;;;12.40;99.90;;;;;;5091814;28;20051;-88
2022/11/24 11:53:35;;;;;;;11.02;6.40;;;12.50;99.90;;;;;;5074665;28;20051;-88
2022/11/24 11:56:24;;;;;;;12.45;4.45;;;12.70;99.90;;;;;;5092190;28;20556;-87
2022/11/24 11:58:59;;;;;;;12.75;6.50;;;12.90;99.90;;;;;;5091944;28;20036;-87
2022/11/24 12:01:30;;;;;;;11.57;6.18;;;13.40;99.90;;;;;;5075175;28;20075;-88
2022/11/24 12:04:31;;;;;;;13.80;4.72;;;13.70;99.90;;;;;;5089714;28;20097;-88
2022/11/24 12:07:18;;;;;;;14.90;7.00;;;14.00;99.90;;;;;;5090103;28;20055;-88
2022/11/24 12:09:56;;;;;;;13.15;6.60;;;14.80;99.90;;;;;;5091282;28;20036;-88
2022/11/24 12:12:48;;;;;;;12.38;4.95;;;15.90;99.90;;;;;;5108340;28;20040;-88
2022/11/24 12:15:32;;;;;;;12.27;5.40;;;16.50;99.90;;;;;;5091625;28;20047;-88
2022/11/24 12:18:10;;;;;;;12.18;5.80;;;16.90;96.00;;;;;;5091701;28;20113;-88
2022/11/24 12:21:00;;;;;;;13.20;5.35;;;17.40;92.30;;;;;;5091899;28;20051;-88
2022/11/24 12:23:44;;;;;;;13.05;5.10;;;17.90;89.10;;;;;;5108359;28;20123;-89
2022/11/24 12:26:48;;;;;;;12.18;4.88;;;18.50;86.10;;;;;;5108986;28;20040;-89
2022/11/24 12:29:28;;;;;;;13.23;5.25;;;19.30;82.00;;;;;;5105371;28;20054;-90
2022/11/24 12:32:06;;;;;;;11.63;4.70;;;20.00;77.60;;;;;;5092810;28;20044;-89
2022/11/24 12:35:03;;;;;;;12.20;4.88;;;20.90;70.20;;;;;;5093530;28;20040;-89
2022/11/24 12:38:02;;;;;;;13.98;4.47;;;21.30;69.50;;;;;;5091907;28;20455;-89
2022/11/24 12:40:57;;;;;;;10.95;4.53;;;21.80;67.40;;;;;;5071507;28;20102;-89
2022/11/24 12:43:35;;;;;;;11.10;4.57;;;22.10;65.00;;;;;;5055076;28;20074;-89
2022/11/24 12:46:21;;;;;;;10.20;3.65;;;22.50;64.30;;;;;;5071844;28;20098;-89
2022/11/24 12:48:49;;;;;;;11.77;3.75;;;22.80;63.40;;;;;;5071746;28;20041;-90
2022/11/24 12:51:21;;;;;;;10.45;3.58;;;23.10;62.10;;;;;;5054492;28;20040;-89
2022/11/24 12:53:49;;;;;;;10.77;4.10;;;23.20;60.70;;;;;;5071276;28;20048;-89
2022/11/24 12:56:18;;;;;;;10.98;3.85;;;23.50;60.50;;;;;;5069231;28;20119;-89
2022/11/24 12:58:50;;;;;;;14.18;4.32;;;23.70;59.20;;;;;;5074200;28;20105;-89
2022/11/24 13:01:20;;;;;;;10.68;4.00;;;24.10;57.90;;;;;;5091332;28;20044;-89
2022/11/24 13:04:11;;;;;;;11.23;3.97;;;24.40;56.90;;;;;;5074024;28;20055;-89
2022/11/24 13:06:50;;;;;;;12.98;4.20;;;24.80;56.20;;;;;;5072746;28;20050;-89